Hlavní strana
METAR-TAF:

METAR-TAF

Letiště :

Letiště Vídeň

Vídeň, Rakousko

zeměpisná šířka: 48-07N, zeměpisná délka: 016-34E, výška: 183 m

Aktuální stav počasí

Zpráva byla vytvořena před 46 minutami, v 04:50 UTC
Západoseverozápadní vítr 9 kt
Teplota 8°C
Vlhkost vzduchu 57%
Tlak 1013 hPa
Viditelnost 10 km a více
Žádná oblačnost pod 1500 m, nevyskytují se cumulonimby.

METAR: LOWW 290450Z 30009KT CAVOK 08/M00 Q1013 NOSIG

Čas: 07:36 (05:36 UTC)

Předpověď počasí

Zpráva byla vytvořena před 21 minutami, v 05:15 UTC
Předpověď platná od 29 v 06 UTC do 30 v 12 UTC
Severozápadní vítr 10 kt
Viditelnost 10 km a více
Žádná oblačnost pod 1500 m, nevyskytují se cumulonimby.
Dočasný
od 29 v 10 UTC do 30 v 12 UTC
Severoseverozápadní vítr 15 kt s nárazy do 25 kt
Dočasný
od 29 v 22 UTC do 30 v 03 UTC
Viditelnost 10 km a více
Zataženo ve výšce 2500 ft
slabé dešťové přeháňky

TAF: LOWW 290515Z 2906/3012 31010KT CAVOK TX15/2913Z TN02/3006Z TEMPO 2910/3012 34015G25KT TEMPO 2922/3003 9999 -SHRA OVC025

Stav a předpovědi počasí z více než 4 000 letišť (zprávy METAR a TAF).

Červené a žluté tečky na mapě představují dostupné meteorologické stanice.

Když kurzor umístíte na tečku, zobrazí se název stanice.

Pak kliknutím zobrazíte stav a předpověď počasí.

Chcete-li změnit mapu, kliknutím na zelené tlačítko se znaménkem +mapu přiblížíte, kliknutím na zelené tlačítko se znaménkem – mapu oddálíte a kliknutím na zelené šipky přejdete na sousední mapy.


METAR-TAF: